Ossian — WDF2623 — position and weather

sailwx.info

Track history (hours):
 
Tides and Currents Weather Stations Pressure Air Temp Water Temp Dewpoint Dewpoint Depression Visibility Wind Speed Wind Dir Waves Ship Positions

Ossian

Owner: Hartzell, Scott R, Florence, OR. More information available from US FCC via Universal Licensing System and Coast Guard Vessel Documentation Center.

Last reported at 2016-May-18 17:19 UTC. Time now 2016-May-29 17:11 UTC.
Position N 43°07' W 124°54'.
Warning: this ship's position is 10 days out of date.

Length 26 m.

Type: Fishing. MMSI: 366773410.

Date/timePositionNaut miles runAvg speedWind from/ knotsBaromVisibWave heightAir tempDewpointWater temp
2016-May-18 17:19N 43°07' W 124°54'3 3.5
2016-May-18 16:24N 43°05' W 124°58'4 4.4
2016-May-18 15:30N 43°04' W 125°03'3 0.9
2016-May-18 12:30N 43°07' W 125°04'2 0.9
2016-May-18 10:05N 43°09' W 125°03'3 0.6
2016-May-18 04:32N 43°12' W 124°60'3 1.9
2016-May-18 03:08N 43°14' W 125°01'  
2016-May-13 14:33N 43°52' W 125°02'1 0.6
2016-May-13 12:16N 43°50' W 125°00'1 1.0
2016-May-13 11:31N 43°51' W 124°60'0 0.1
2016-May-13 10:18N 43°51' W 124°60'1 0.3
2016-May-13 06:32N 43°52' W 125°00'5 2.4
2016-May-13 04:33N 43°56' W 124°58'0 0.3
2016-May-13 03:33N 43°56' W 124°58'2 1.8
2016-May-13 02:33N 43°58' W 124°58'0 0.0
2016-May-13 01:33N 43°58' W 124°58'0 0.3
2016-May-13 00:34N 43°58' W 124°58'5 3.4
2016-May-12 23:13N 44°01' W 125°01'1 1.9
2016-May-12 22:26N 44°00' W 124°60'1 1.3
2016-May-12 21:33N 44°01' W 125°01'0 0.3
2016-May-12 20:33N 44°01' W 125°01'8 7.9
2016-May-12 19:32N 43°55' W 124°54'1 1.0
2016-May-12 18:32N 43°54' W 124°54'1 0.7
2016-May-12 17:33N 43°55' W 124°54'1 0.8
2016-May-12 16:30N 43°55' W 124°55'4 4.2
2016-May-12 15:34N 43°58' W 124°58'3 3.4
2016-May-12 14:33N 43°55' W 124°55'1 0.6
2016-May-12 13:33N 43°56' W 124°56'3 3.1
2016-May-12 12:33N 43°54' W 124°59'0 0.5
2016-May-12 11:34N 43°54' W 124°59'1 0.5
2016-May-12 10:33N 43°55' W 124°59'0 0.0
2016-May-12 09:34N 43°55' W 124°59'0 0.4
2016-May-12 08:33N 43°55' W 124°60'0 0.5
2016-May-12 07:32N 43°56' W 124°60'0 0.4
2016-May-12 06:33N 43°56' W 124°60'1 0.7
2016-May-12 05:33N 43°56' W 125°01'4 4.2
2016-May-12 04:33N 43°51' W 125°02'1 1.0
2016-May-12 03:24N 43°53' W 125°02'4 3.6
2016-May-12 02:21N 43°56' W 125°02'4 3.1
2016-May-12 01:10N 44°00' W 125°01'0 0.5
2016-May-12 00:15N 44°00' W 125°01'4 5.5
2016-May-11 23:34N 44°04' W 124°59'0 0.4
2016-May-11 22:33N 44°04' W 124°59'4 4.0
2016-May-11 21:33N 44°00' W 124°58'2 1.4
2016-May-11 20:29N 43°59' W 124°58'2 2.1
2016-May-11 19:34N 43°57' W 124°57'2 2.3
2016-May-11 18:33N 43°55' W 124°55'1 1.2
2016-May-11 17:33N 43°54' W 124°54'2 1.7
2016-May-11 16:33N 43°55' W 124°56'1 1.4
2016-May-11 15:33N 43°54' W 124°55'2 2.0
2016-May-11 14:33N 43°56' W 124°57'0 0.2
2016-May-11 13:33N 43°56' W 124°57'5 4.5
2016-May-11 12:34N 43°59' W 125°02'0 0.1
2016-May-11 11:33N 43°59' W 125°02'6 0.9
2016-May-11 05:33N 44°04' W 125°00'1 1.1
2016-May-11 04:33N 44°04' W 124°59'1 1.1
2016-May-11 03:29N 44°03' W 124°57'1 0.7
2016-May-11 02:32N 44°03' W 124°57'3 3.2
2016-May-11 01:33N 44°01' W 125°01'1 0.9
2016-May-11 00:33N 44°00' W 125°01'2 2.4
2016-May-10 23:33N 44°01' W 124°58'1 0.6
2016-May-10 22:33N 44°00' W 124°58'3 2.5
2016-May-10 21:34N 43°58' W 124°58'2 2.2
2016-May-10 20:33N 44°00' W 124°57'2 1.7
2016-May-10 19:27N 43°58' W 124°58'4 4.6
2016-May-10 18:33N 43°55' W 124°55'1 0.9
2016-May-10 17:34N 43°55' W 124°56'3 3.0
2016-May-10 16:33N 43°58' W 124°58'1 0.7
2016-May-10 15:30N 43°57' W 124°58'1 1.4
2016-May-10 14:33N 43°56' W 124°57'1 0.8
2016-May-10 13:33N 43°55' W 124°56'5 3.6
2016-May-10 12:07N 43°57' W 125°03'1 1.0
2016-May-10 11:33N 43°58' W 125°03'2 1.0
2016-May-10 09:25N 44°00' W 125°02'1 1.0
2016-May-10 08:27N 44°01' W 125°02'1 1.0
2016-May-10 07:25N 44°02' W 125°01'1 1.2
2016-May-10 06:33N 44°03' W 125°01'2 2.1
2016-May-10 05:33N 44°02' W 124°58'  
Track history (hours):
 
Tides and Currents Weather Stations Pressure Air Temp Water Temp Dewpoint Dewpoint Depression Visibility Wind Speed Wind Dir Waves Ship Positions

Ossian

Owner: Hartzell, Scott R, Florence, OR. More information available from US FCC via Universal Licensing System and Coast Guard Vessel Documentation Center.

Last reported at 2016-May-18 17:19 UTC. Time now 2016-May-29 17:11 UTC.
Position N 43°07' W 124°54'.
Warning: this ship's position is 10 days out of date.

Length 26 m.

Type: Fishing. MMSI: 366773410.

Date/timePositionNaut miles runAvg speedWind from/ knotsBaromVisibWave heightAir tempDewpointWater temp
2016-May-18 17:19N 43°07' W 124°54'3 3.5
2016-May-18 16:24N 43°05' W 124°58'4 4.4
2016-May-18 15:30N 43°04' W 125°03'3 0.9
2016-May-18 12:30N 43°07' W 125°04'2 0.9
2016-May-18 10:05N 43°09' W 125°03'3 0.6
2016-May-18 04:32N 43°12' W 124°60'3 1.9
2016-May-18 03:08N 43°14' W 125°01'  
2016-May-13 14:33N 43°52' W 125°02'1 0.6
2016-May-13 12:16N 43°50' W 125°00'1 1.0
2016-May-13 11:31N 43°51' W 124°60'0 0.1
2016-May-13 10:18N 43°51' W 124°60'1 0.3
2016-May-13 06:32N 43°52' W 125°00'5 2.4
2016-May-13 04:33N 43°56' W 124°58'0 0.3
2016-May-13 03:33N 43°56' W 124°58'2 1.8
2016-May-13 02:33N 43°58' W 124°58'0 0.0
2016-May-13 01:33N 43°58' W 124°58'0 0.3
2016-May-13 00:34N 43°58' W 124°58'5 3.4
2016-May-12 23:13N 44°01' W 125°01'1 1.9
2016-May-12 22:26N 44°00' W 124°60'1 1.3
2016-May-12 21:33N 44°01' W 125°01'0 0.3
2016-May-12 20:33N 44°01' W 125°01'8 7.9
2016-May-12 19:32N 43°55' W 124°54'1 1.0
2016-May-12 18:32N 43°54' W 124°54'1 0.7
2016-May-12 17:33N 43°55' W 124°54'1 0.8
2016-May-12 16:30N 43°55' W 124°55'4 4.2
2016-May-12 15:34N 43°58' W 124°58'3 3.4
2016-May-12 14:33N 43°55' W 124°55'1 0.6
2016-May-12 13:33N 43°56' W 124°56'3 3.1
2016-May-12 12:33N 43°54' W 124°59'0 0.5
2016-May-12 11:34N 43°54' W 124°59'1 0.5
2016-May-12 10:33N 43°55' W 124°59'0 0.0
2016-May-12 09:34N 43°55' W 124°59'0 0.4
2016-May-12 08:33N 43°55' W 124°60'0 0.5
2016-May-12 07:32N 43°56' W 124°60'0 0.4
2016-May-12 06:33N 43°56' W 124°60'1 0.7
2016-May-12 05:33N 43°56' W 125°01'4 4.2
2016-May-12 04:33N 43°51' W 125°02'1 1.0
2016-May-12 03:24N 43°53' W 125°02'4 3.6
2016-May-12 02:21N 43°56' W 125°02'4 3.1
2016-May-12 01:10N 44°00' W 125°01'0 0.5
2016-May-12 00:15N 44°00' W 125°01'4 5.5
2016-May-11 23:34N 44°04' W 124°59'0 0.4
2016-May-11 22:33N 44°04' W 124°59'4 4.0
2016-May-11 21:33N 44°00' W 124°58'2 1.4
2016-May-11 20:29N 43°59' W 124°58'2 2.1
2016-May-11 19:34N 43°57' W 124°57'2 2.3
2016-May-11 18:33N 43°55' W 124°55'1 1.2
2016-May-11 17:33N 43°54' W 124°54'2 1.7
2016-May-11 16:33N 43°55' W 124°56'1 1.4
2016-May-11 15:33N 43°54' W 124°55'2 2.0
2016-May-11 14:33N 43°56' W 124°57'0 0.2
2016-May-11 13:33N 43°56' W 124°57'5 4.5
2016-May-11 12:34N 43°59' W 125°02'0 0.1
2016-May-11 11:33N 43°59' W 125°02'6 0.9
2016-May-11 05:33N 44°04' W 125°00'1 1.1
2016-May-11 04:33N 44°04' W 124°59'1 1.1
2016-May-11 03:29N 44°03' W 124°57'1 0.7
2016-May-11 02:32N 44°03' W 124°57'3 3.2
2016-May-11 01:33N 44°01' W 125°01'1 0.9
2016-May-11 00:33N 44°00' W 125°01'2 2.4
2016-May-10 23:33N 44°01' W 124°58'1 0.6
2016-May-10 22:33N 44°00' W 124°58'3 2.5
2016-May-10 21:34N 43°58' W 124°58'2 2.2
2016-May-10 20:33N 44°00' W 124°57'2 1.7
2016-May-10 19:27N 43°58' W 124°58'4 4.6
2016-May-10 18:33N 43°55' W 124°55'1 0.9
2016-May-10 17:34N 43°55' W 124°56'3 3.0
2016-May-10 16:33N 43°58' W 124°58'1 0.7
2016-May-10 15:30N 43°57' W 124°58'1 1.4
2016-May-10 14:33N 43°56' W 124°57'1 0.8
2016-May-10 13:33N 43°55' W 124°56'5 3.6
2016-May-10 12:07N 43°57' W 125°03'1 1.0
2016-May-10 11:33N 43°58' W 125°03'2 1.0
2016-May-10 09:25N 44°00' W 125°02'1 1.0
2016-May-10 08:27N 44°01' W 125°02'1 1.0
2016-May-10 07:25N 44°02' W 125°01'1 1.2
2016-May-10 06:33N 44°03' W 125°01'2 2.1
2016-May-10 05:33N 44°02' W 124°58'  

Dump ship's entire track history